Colton, California
Current Conditions -  °F | °C
As of 12:50 PM on Friday 19 Dec 2014 (Local Time) from KSBD Reporting Station
Scattered Clouds Scattered Clouds  
Wind Chill: 63°   Ceiling: Unl
Heat Index: 63°   Visibility: 10mi
Dew Point: 39°   Wind: 0mph
Humidity: 42%   Direction: NA
Pressure: 30.18"   Gusts: NA
Location:  34.07°N, 117.32°W
Report Text: KSBD 192050Z 00000KT 10SM SCT200 17/04 A3018
Loading
Personal Weather Stations






























Interactive Weather Map New forecast layout! Learn more

10-Day Weather Forecast

Advertisements
Track Severe Weather on mobile